Flugplatz Znojmo (LKZN)

Hier findest Du alle Informationen zum Flugplatz Znojmo (LKZN).

Informationen für Piloten zum Flugplatz Znojmo

Hier findest Du alle relevanten Informationen, die Du als Pilot benötigst, um Znojmo anzufliegen.

Flugplatz: Znojmo ICAO-Code: LKZN
Frequenz Turm: 130,590 Mhz GAFOR Gebiet: -
Frequenz Ground: 130,590 Mhz Mogas: nein
Platzrunde: N 1811 ft Landegebühr: --??- €
Platzhöhe: - Sunrise: 02:59 Uhr UTC
Pisten: 08/26 - 860 m x 18 m, GRAS Sunset: 19:02 Uhr UTC

Flugwetter am Flugplatz Znojmo

Die METAR Information stammen aus EDDC (301.09 km entfernt).

METAR Code:
2020/07/03 13:20
EDDC 031320Z 29009KT 230V340 9999 SCT044 23/11 Q1016 NOSIG

Flugschulen am Flugplatz Znojmo

Am Flugplatz Znojmo gibt es leider keine Flugschule.

Jetzt anmelden

Passwort vergessen

Umfrage Archiv

Wären Rettungsgeräte keine Pflicht mehr, würdet Ihr Euer UL trotzdem mit einem ausstatten?

Ja
82.1 %
Nein
17.9 %
Stimmen: 195 | Diskussion
Anzeige: Roland Aircraft
Statistik Alle Mitglieder

Aktuell sind 23 Besucher online, davon 2 Mitglieder und 21 Gäste.


Mitglieder online:
flo_ffb  togo 

Anzeige: VFR Sprechfunk Simulator


Anzeige: Pocket FMS